createdAt,value
2023-03-23T15:57:53.520Z,99853.06
2023-03-23T16:00:24.267Z,99851.59
2023-03-23T16:02:56.843Z,99851.09
2023-03-23T16:05:25.825Z,99847.00
2023-03-23T16:07:55.780Z,99846.50
2023-03-23T16:10:24.793Z,99864.16
2023-03-23T16:12:53.513Z,99845.38
2023-03-23T16:15:22.247Z,99850.47
2023-03-23T16:17:50.619Z,99850.38
2023-03-23T16:20:20.878Z,99848.59
2023-03-23T16:22:50.900Z,99849.94
2023-03-23T16:25:21.250Z,99845.06
2023-03-23T16:27:52.305Z,99847.00
2023-03-23T16:30:23.496Z,99833.41
2023-03-23T16:32:54.174Z,99833.88
2023-03-23T16:35:23.903Z,99837.38
2023-03-23T16:38:08.112Z,99830.69
2023-03-23T16:40:38.790Z,99830.56
2023-03-23T16:43:08.581Z,99833.09
2023-03-23T16:45:38.399Z,99835.59
2023-03-23T16:48:07.886Z,99828.50
2023-03-23T16:50:37.274Z,99817.16
2023-03-23T16:53:06.687Z,99821.88
2023-03-23T16:55:37.615Z,99818.34
2023-03-23T16:58:17.129Z,99821.88
2023-03-23T17:00:50.622Z,99822.34
2023-03-23T17:03:20.049Z,99829.50
2023-03-23T17:05:49.432Z,99820.38
2023-03-23T17:08:18.445Z,99817.56
2023-03-23T17:10:46.627Z,99816.44
2023-03-23T17:13:17.376Z,99812.94
2023-03-23T17:15:47.370Z,99808.22
2023-03-23T17:18:16.272Z,99810.34
2023-03-23T17:20:45.127Z,99806.44
2023-03-23T17:23:13.959Z,99795.75
2023-03-23T17:25:42.932Z,99797.53
2023-03-23T17:28:11.461Z,99792.81
2023-03-23T17:30:44.995Z,99798.25
2023-03-23T17:33:14.320Z,99791.97
2023-03-23T17:35:44.563Z,99786.72
2023-03-23T17:38:13.951Z,99790.09
2023-03-23T17:40:42.383Z,99795.69
2023-03-23T17:43:10.626Z,99804.84
2023-03-23T17:45:38.964Z,99800.44
2023-03-23T17:48:09.322Z,99803.44
2023-03-23T17:50:37.671Z,99810.34
2023-03-23T17:53:06.256Z,99809.47
2023-03-23T17:55:34.383Z,99803.28
2023-03-23T17:58:02.630Z,99801.66
2023-03-23T18:00:31.531Z,99806.81
2023-03-23T18:02:59.850Z,99813.72
2023-03-23T18:05:31.871Z,99813.44
2023-03-23T18:08:00.960Z,99818.03
2023-03-23T18:10:29.137Z,99809.78
2023-03-23T18:12:58.832Z,99816.28
2023-03-23T18:15:29.746Z,99810.84
2023-03-23T18:17:58.402Z,99806.59
2023-03-23T18:20:27.896Z,99812.75
2023-03-23T18:22:58.201Z,99804.00
2023-03-23T18:25:27.298Z,99801.09
2023-03-23T18:27:56.156Z,99802.84
2023-03-23T18:30:33.451Z,99805.97
2023-03-23T18:33:02.253Z,99791.31
2023-03-23T18:35:30.864Z,99790.44
2023-03-23T18:38:00.618Z,99792.38
2023-03-23T18:40:28.982Z,99795.00
2023-03-23T18:42:57.072Z,99792.22
2023-03-23T18:45:25.431Z,99798.50
2023-03-23T18:47:54.486Z,99790.88
2023-03-23T18:50:23.036Z,99784.44
2023-03-23T18:52:51.306Z,99785.63
2023-03-23T18:55:22.190Z,99784.78
2023-03-23T18:57:51.244Z,99785.97
2023-03-23T19:00:21.710Z,99786.53
2023-03-23T19:02:51.997Z,99783.91
2023-03-23T19:05:20.949Z,99784.34
2023-03-23T19:07:49.390Z,99793.88
2023-03-23T19:10:18.063Z,99795.06
2023-03-23T19:12:48.960Z,99793.63
2023-03-23T19:15:18.548Z,99793.47
2023-03-23T19:17:47.508Z,99789.06
2023-03-23T19:20:23.692Z,99794.50
2023-03-23T19:23:05.099Z,99794.38
2023-03-23T19:25:33.312Z,99787.19
2023-03-23T19:30:34.688Z,99779.00
2023-03-23T19:33:03.173Z,99761.16
2023-03-23T19:35:32.406Z,99762.47
2023-03-23T19:38:01.028Z,99763.22
2023-03-23T19:40:40.291Z,99757.34
2023-03-23T19:43:11.754Z,99754.44
2023-03-23T19:45:41.873Z,99753.84
2023-03-23T19:48:10.373Z,99752.53
2023-03-23T19:50:40.700Z,99749.59
2023-03-23T19:53:10.012Z,99750.19
2023-03-23T19:55:38.800Z,99745.94
2023-03-23T19:58:06.892Z,99751.50
2023-03-23T20:00:38.133Z,99749.91
2023-03-23T20:03:08.902Z,99744.19
2023-03-23T20:05:37.813Z,99746.09
2023-03-23T20:08:07.070Z,99742.28
2023-03-23T20:10:35.719Z,99752.28
2023-03-23T20:13:05.352Z,99742.78
2023-03-23T20:15:34.372Z,99737.22
2023-03-23T20:18:06.011Z,99734.28
2023-03-23T20:20:36.592Z,99736.47
2023-03-23T20:23:07.798Z,99734.25
2023-03-23T20:25:36.961Z,99734.13
2023-03-23T20:28:06.542Z,99720.81
2023-03-23T20:30:35.670Z,99726.22
2023-03-23T20:33:05.423Z,99736.03
2023-03-23T20:35:33.512Z,99730.31
2023-03-23T20:38:02.294Z,99724.03
2023-03-23T20:40:30.443Z,99714.81
2023-03-23T20:42:58.693Z,99721.81
2023-03-23T20:45:27.238Z,99723.41
2023-03-23T20:47:55.508Z,99716.38
2023-03-23T20:50:25.295Z,99717.94
2023-03-23T20:52:54.527Z,99712.53
2023-03-23T20:55:22.727Z,99710.75
2023-03-23T20:57:51.164Z,99713.50
2023-03-23T21:00:19.649Z,99723.75
2023-03-23T21:02:49.693Z,99711.56
2023-03-23T21:05:18.145Z,99713.16
2023-03-23T21:07:50.971Z,99711.09
2023-03-23T21:10:19.111Z,99704.81
2023-03-23T21:12:48.776Z,99704.94
2023-03-23T21:15:17.293Z,99696.13
2023-03-23T21:17:46.714Z,99696.13
2023-03-23T21:20:15.278Z,99690.97
2023-03-23T21:22:43.938Z,99695.97
2023-03-23T21:25:13.661Z,99683.44
2023-03-23T21:27:41.635Z,99682.53
2023-03-23T21:30:12.109Z,99680.47
2023-03-23T21:32:40.435Z,99680.59
2023-03-23T21:35:09.155Z,99680.59
2023-03-23T21:37:39.010Z,99678.53
2023-03-23T21:40:13.178Z,99683.66
2023-03-23T21:42:43.800Z,99679.06
2023-03-23T21:45:20.984Z,99680.53
2023-03-23T21:47:49.820Z,99680.97
2023-03-23T21:50:18.145Z,99685.25
2023-03-23T21:52:51.217Z,99677.41
2023-03-23T21:55:19.791Z,99677.25
2023-03-23T21:57:50.080Z,99673.59
2023-03-23T22:00:18.915Z,99666.84
2023-03-23T22:02:47.385Z,99663.09
2023-03-23T22:05:16.029Z,99678.63
2023-03-23T22:07:46.299Z,99660.44
2023-03-23T22:10:15.830Z,99667.19
2023-03-23T22:12:44.554Z,99663.81
2023-03-23T22:15:15.670Z,99658.97
2023-03-23T22:17:44.737Z,99664.59
2023-03-23T22:20:15.864Z,99658.75
2023-03-23T22:22:44.238Z,99651.59
2023-03-23T22:25:13.377Z,99648.25
2023-03-23T22:27:42.788Z,99642.38
2023-03-23T22:30:16.123Z,99636.53
2023-03-23T22:32:45.033Z,99622.25
2023-03-23T22:35:14.189Z,99615.22
2023-03-23T22:37:42.598Z,99624.63
2023-03-23T22:40:12.230Z,99619.06
2023-03-23T22:42:40.608Z,99626.81
2023-03-23T22:45:10.374Z,99624.63
2023-03-23T22:47:41.553Z,99614.59
2023-03-23T22:50:11.364Z,99624.44
2023-03-23T22:52:39.754Z,99602.75
2023-03-23T22:55:13.214Z,99597.19
2023-03-23T22:57:41.437Z,99601.31
2023-03-23T23:00:14.904Z,99606.44
2023-03-23T23:02:45.413Z,99608.97
2023-03-23T23:05:16.190Z,99611.34
2023-03-23T23:07:44.882Z,99613.13
2023-03-23T23:10:13.246Z,99614.34
2023-03-23T23:12:42.445Z,99611.28
2023-03-23T23:15:14.681Z,99614.47
2023-03-23T23:17:48.374Z,99601.28
2023-03-23T23:20:18.772Z,99601.13
2023-03-23T23:22:47.346Z,99597.91
2023-03-23T23:25:15.696Z,99603.00
2023-03-23T23:27:45.324Z,99598.03
2023-03-23T23:30:15.150Z,99599.81
2023-03-23T23:32:44.608Z,99587.66
2023-03-23T23:35:15.058Z,99590.00
2023-03-23T23:37:43.465Z,99591.06
2023-03-23T23:40:14.888Z,99592.25
2023-03-23T23:42:44.173Z,99589.88
2023-03-23T23:45:13.278Z,99587.69
2023-03-23T23:47:41.731Z,99580.00
2023-03-23T23:50:14.502Z,99575.75
2023-03-23T23:52:45.664Z,99562.75
2023-03-23T23:55:16.889Z,99558.88
2023-03-23T23:57:46.472Z,99560.66
